WEATHER DATA

TODAY
Time Temp. Dewp. Hum. Wind dir Wind speed Wind gust Bar. 1h Prec. 24h Prec.
00:02 20.4 14.3 68 270 0.3 1.1 1014.1 0.0000 0.0000
00:12 20.3 14.4 69 270 0.3 1.1 1013.9 0.0000 0.0000
00:22 20.3 14.7 70 270 0.3 0.8 1014 0.0000 0.0000
00:32 20.2 14.6 70 270 0.3 1.1 1014.1 0.0000 0.0000
00:43 20.1 14.5 70 270 0.3 1.1 1014 0.0000 0.0000
00:52 20 14.4 70 270 0.3 1.1 1014 0.0000 0.0000
01:02 20 14.6 71 270 0.3 1.1 1014 0.0000 0.0000
01:12 20 14.6 71 270 0.3 1.1 1013.9 0.0000 0.0000
01:23 20 14.6 71 270 0.3 1.1 1013.9 0.0000 0.0000
01:33 20 14.6 71 315 0.3 0.8 1013.9 0.0000 0.0000
01:43 20.1 14.5 70 309 0.3 1.1 1014.1 0.0000 0.0000
01:53 20.1 14.5 70 270 0.3 1.1 1014 0.0000 0.0000
02:03 20.1 14.5 70 270 0.3 0.8 1014.1 0.0000 0.0000
02:05 20.1 14.5 70 270 0.3 0.8 1014.1 0.0000 0.0000
02:15 20.1 14.5 70 270 0.3 1.1 1014.2 0.0000 0.0000
02:24 20 14.4 70 270 0.3 1.1 1014.2 0.0000 0.0000
02:34 19.9 14.5 71 270 0.3 1.1 1014.2 0.0000 0.0000
02:45 19.9 14.5 71 270 0.3 0.8 1014.2 0.0000 0.0000
02:55 19.9 14.5 71 270 0.3 1.1 1014.1 0.0000 0.0000
03:05 19.9 14.7 72 270 0.3 0.8 1014 0.0000 0.0000
03:15 19.9 14.7 72 270 0.3 1.1 1014.1 0.0000 0.0000
03:25 19.9 14.7 72 270 0.3 1.1 1014 0.0000 0.0000
03:35 19.8 14.6 72 270 0.3 1.1 1014 0.0000 0.0000
03:45 19.8 14.6 72 270 0.3 0.8 1014 0.0000 0.0000
03:56 19.7 14.5 72 270 0.3 1.1 1014 0.0000 0.0000
04:06 19.6 14.4 72 270 0.3 1.1 1014 0.0000 0.0000
04:15 19.5 14.3 72 270 0.3 1.9 1013.8 0.0000 0.0000
04:26 19.4 14.2 72 270 0.3 1.1 1014 0.0000 0.0000
04:36 19.2 14 72 270 0.3 1.1 1013.9 0.0000 0.0000
04:46 19.1 14.2 73 270 0.3 1.1 1013.8 0.0000 0.0000
04:56 19.1 14.2 73 270 0.3 0.8 1013.9 0.0000 0.0000
05:07 19.1 14.2 73 306 0.3 0.8 1013.7 0.0000 0.0000
05:16 19.1 14.2 73 270 0.3 0.8 1013.8 0.0000 0.0000
05:26 19 14.1 73 270 0.3 1.4 1014 0.0000 0.0000
05:36 18.9 14 73 270 0.3 1.4 1014.1 0.0000 0.0000
05:47 18.8 13.9 73 270 0.3 1.4 1014 0.0000 0.0000
05:57 18.7 14 74 270 0.3 1.1 1014 0.0000 0.0000
06:06 18.7 14 74 270 0.3 1.1 1014.1 0.0000 0.0000
06:17 18.7 14 74 270 0.3 1.1 1014.1 0.0000 0.0000
06:27 18.7 14 74 270 0.3 1.1 1014.1 0.0000 0.0000
06:37 18.7 14 74 270 0.3 1.1 1013.9 0.0000 0.0000
06:47 18.7 14.2 75 270 0.3 1.1 1014 0.0000 0.0000
06:58 18.7 14.2 75 324 0.3 1.1 1014 0.0000 0.0000
07:07 18.8 14.3 75 320 0.3 1.1 1014 0.0000 0.0000
07:17 18.8 14.3 75 330 0.3 1.4 1014 0.0000 0.0000
07:28 18.8 14.3 75 309 0.3 1.4 1014 0.0000 0.0000
07:38 18.9 14.4 75 310 0.3 1.1 1014.2 0.0000 0.0000
07:48 18.9 14.4 75 270 0.3 1.1 1014.3 0.0000 0.0000
07:57 18.9 14.4 75 270 0.3 1.1 1014.3 0.0000 0.0000
08:08 19 14.5 75 322 0.3 1.1 1014.2 0.0000 0.0000
08:18 19 14.5 75 321 0.3 1.1 1014.5 0.0000 0.0000
08:28 19 14.5 75 270 0.3 1.1 1014.5 0.0000 0.0000
08:38 19 14.7 76 270 0.3 1.4 1014.5 0.0000 0.0000
08:49 19 14.7 76 270 0.3 1.4 1014.5 0.0000 0.0000
08:58 19.1 14.8 76 270 0.3 1.4 1014.4 0.0000 0.0000
09:08 19.1 14.8 76 270 0.3 1.1 1014.8 0.0000 0.0000
09:19 19.1 14.8 76 270 0.3 1.4 1014.9 0.0000 0.0000
09:29 19.1 14.8 76 270 0.3 1.4 1014.9 0.0000 0.0000
09:39 19.1 15 77 270 0.8 1.4 1015 0.0000 0.0000
09:49 19 14.9 77 285 0.8 1.1 1015 0.0000 0.0000
09:59 19 15.1 78 270 0.3 1.1 1015.2 0.0000 0.0000
10:09 19 15.1 78 270 0.3 1.1 1015 0.0000 0.0000
10:19 19 15.1 78 270 0.3 1.9 1015.2 0.0000 0.0000
10:30 18.9 15 78 270 0.8 2.2 1015.4 0.0000 0.0000
10:40 18.9 15.2 79 315 0.3 1.4 1015.4 0.0000 0.0000
10:49 19 15.3 79 270 0.3 1.1 1015.4 0.0000 0.0000
10:59 19 15.3 79 270 0.3 1.4 1015.5 0.0000 0.0000
11:10 19 15.3 79 270 0.3 1.1 1015.5 0.0000 0.0000
11:20 19 15.3 79 270 0.3 1.1 1015.5 0.0000 0.0000
11:30 18.9 15.2 79 270 0.3 1.4 1015.6 0.0000 0.0000
11:40 18.9 15.2 79 270 0.3 1.1 1015.6 0.0000 0.0000
11:50 18.9 15.2 79 270 0.3 1.4 1015.7 0.0000 0.0000
12:00 18.9 15.2 79 270 0.3 1.4 1015.6 0.0000 0.0000
12:10 18.9 15.2 79 270 0.3 1.1 1015.5 0.0000 0.0000
12:21 19 15.3 79 270 0.3 1.4 1015.5 0.0000 0.0000
12:31 19.1 15.4 79 270 0.3 1.4 1015.6 0.0000 0.0000
12:40 19.2 15.5 79 270 0.3 1.1 1015.6 0.0000 0.0000
12:50 19.4 15.7 79 270 0.3 1.1 1015.5 0.0000 0.0000
13:01 19.6 15.9 79 270 0.3 1.9 1015.5 0.0000 0.0000
13:11 19.9 16 78 270 0.3 1.9 1015.6 0.0000 0.0000
13:21 20.1 16.1 78 270 0.3 1.4 1015.6 0.0000 0.0000
13:31 20.4 16.2 77 270 0.3 1.1 1015.6 0.0000 0.0000
13:41 20.5 16.1 76 270 0.3 1.4 1015.5 0.0000 0.0000
13:51 20.7 16.3 76 270 0.3 1.4 1015.4 0.0000 0.0000
14:01 20.9 16.3 75 270 0.3 1.4 1015.4 0.0000 0.0000
14:12 21.1 16.5 75 270 0.3 1.9 1015.3 0.0000 0.0000
14:22 21.2 16.4 74 270 0.8 1.9 1015.2 0.0000 0.0000
14:32 21.4 16.4 73 270 0.3 1.4 1015.3 0.0000 0.0000
14:42 21.5 16.2 72 270 0.3 1.4 1015.3 0.0000 0.0000
15:02 21.6 16.3 72 270 0.3 1.4 1015.3 0.0000 0.0000
15:12 21.7 16.4 72 270 0.3 1.4 1015.4 0.0000 0.0000
15:23 21.6 16.3 72 270 0.3 1.4 1015.2 0.0000 0.0000
15:32 21.6 16.3 72 270 0.3 1.4 1015.3 0.0000 0.0000
15:42 21.6 16.1 71 250 0.8 1.9 1015.2 0.0000 0.0000
15:52 21.6 16.1 71 237 0.3 1.1 1015.2 0.0000 0.0000
16:03 21.5 16.2 72 225 0.3 1.4 1015.3 0.0000 0.0000
16:13 21.3 16.1 72 240 0.3 1.4 1015.3 0.0000 0.0000
16:33 20.9 15.4 71 270 0.3 1.4 1015.4 0.0000 0.0000
16:43 20.8 15.4 71 270 0.3 0.8 1015.3 0.0000 0.0000
16:53 20.8 15.4 71 270 0.3 1.1 1015.3 0.0000 0.0000
17:13 20.8 15.4 71 270 0.3 0.8 1015.2 0.0000 0.0000
17:23 20.8 15.4 71 270 0.3 1.4 1015.3 0.0000 0.0000
17:33 20.8 15.4 71 270 0.3 0.8 1015.2 0.0000 0.0000
17:44 20.9 15.4 71 270 0.3 1.4 1015.2 0.0000 0.0000
17:54 20.9 15.4 71 270 0.3 1.4 1015.2 0.0000 0.0000
18:13 20.9 15.4 71 270 0.3 1.1 1015.2 0.0000 0.0000
18:24 20.9 15.4 71 270 0.3 1.1 1015 0.0000 0.0000
18:34 20.9 15.4 71 270 0.3 1.1 1015 0.0000 0.0000
18:54 20.8 14.9 69 270 0.3 1.1 1015.2 0.0000 0.0000
19:04 20.8 14.9 69 270 0.3 0.8 1015 0.0000 0.0000
19:14 20.8 14.7 68 270 0.3 0.8 1014.9 0.0000 0.0000
19:35 20.8 14.2 66 270 0.3 1.1 1015 0.0000 0.0000
19:45 20.8 14.2 66 270 0.3 1.1 1015.1 0.0000 0.0000
19:54 20.8 14.5 67 270 0.3 1.1 1015 0.0000 0.0000

DAY STATISTIC

2018-08-20
TEMPERATURE
AVERAGE
19.8
HIGH
21.7
15:12
LOW
18.7
05:57
PRESSURE
AVERAGE
1014.7
HIGH
1015.7
11:50
LOW
1013.7
05:07
DEWPOINT
AVERAGE
15.0
HIGH
16.5
14:12
LOW
13.9
05:47
HUMIDITY
AVERAGE
74
HIGH
79
10:40
LOW
66
19:35
WIND SPEED
AVERAGE
0.3
HIGH
0.8
09:39
WIND GUST
AVERAGE
1.2
HIGH
2.2
10:30
WIND DIRECTION
PREVAILING
W
87.7%
N
0.0
NE
0.0
E
0.0
SE
0.0
S
0.0
SW
2.6
W
87.7
NW
9.6
PRECIPITATION
RAIN HOUR
0.0
RAIN DAY
0.0
TEMPERATURE (°C)
LOW
18.7
HIGH
21.7
AVERAGE
19.8
PRESSURE (hpa)
LOW
1013.7
HIGH
1015.7
AVERAGE
1014.7
DEVICE